sensor_id;sensor_type;location;lat;lon;timestamp;P1;durP1;ratioP1;P2;durP2;ratioP2
29700;SDS011;57917;51.380;-0.176;2023-02-18T00:01:07;4.63;;;1.60;;
29700;SDS011;57917;51.380;-0.176;2023-02-18T00:07:01;5.28;;;1.88;;
29700;SDS011;57917;51.380;-0.176;2023-02-18T00:12:48;2.97;;;1.40;;
29700;SDS011;57917;51.380;-0.176;2023-02-18T00:18:35;5.47;;;1.58;;
29700;SDS011;57917;51.380;-0.176;2023-02-18T00:24:22;4.50;;;1.40;;
29700;SDS011;57917;51.380;-0.176;2023-02-18T00:30:09;3.92;;;1.70;;
29700;SDS011;57917;51.380;-0.176;2023-02-18T00:36:04;3.80;;;1.38;;
29700;SDS011;57917;51.380;-0.176;2023-02-18T00:41:54;2.45;;;1.30;;
29700;SDS011;57917;51.380;-0.176;2023-02-18T00:47:41;3.85;;;1.80;;
29700;SDS011;57917;51.380;-0.176;2023-02-18T00:53:30;3.83;;;1.77;;
29700;SDS011;57917;51.380;-0.176;2023-02-18T00:59:18;4.43;;;1.40;;
29700;SDS011;57917;51.380;-0.176;2023-02-18T01:05:05;3.08;;;0.95;;
29700;SDS011;57917;51.380;-0.176;2023-02-18T01:10:52;1.70;;;1.08;;
29700;SDS011;57917;51.380;-0.176;2023-02-18T01:16:41;2.30;;;1.08;;
29700;SDS011;57917;51.380;-0.176;2023-02-18T01:22:28;1.00;;;0.85;;
29700;SDS011;57917;51.380;-0.176;2023-02-18T01:28:18;2.22;;;0.85;;
29700;SDS011;57917;51.380;-0.176;2023-02-18T01:34:10;1.40;;;0.75;;
29700;SDS011;57917;51.380;-0.176;2023-02-18T01:40:00;1.30;;;0.73;;
29700;SDS011;57917;51.380;-0.176;2023-02-18T01:52:08;2.72;;;0.60;;
29700;SDS011;57917;51.380;-0.176;2023-02-18T01:57:58;1.15;;;0.60;;
29700;SDS011;57917;51.380;-0.176;2023-02-18T02:03:45;3.90;;;1.02;;
29700;SDS011;57917;51.380;-0.176;2023-02-18T02:09:33;1.73;;;0.65;;
29700;SDS011;57917;51.380;-0.176;2023-02-18T02:34:30;1.00;;;0.20;;
29700;SDS011;57917;51.380;-0.176;2023-02-18T02:40:42;1.15;;;0.30;;
29700;SDS011;57917;51.380;-0.176;2023-02-18T02:46:43;2.45;;;0.50;;
29700;SDS011;57917;51.380;-0.176;2023-02-18T02:52:37;0.75;;;0.40;;
29700;SDS011;57917;51.380;-0.176;2023-02-18T02:58:33;2.28;;;0.47;;
29700;SDS011;57917;51.380;-0.176;2023-02-18T03:04:22;3.95;;;0.45;;
29700;SDS011;57917;51.380;-0.176;2023-02-18T03:10:27;2.53;;;0.22;;
29700;SDS011;57917;51.380;-0.176;2023-02-18T03:22:48;2.90;;;0.50;;
29700;SDS011;57917;51.380;-0.176;2023-02-18T03:28:37;5.40;;;0.40;;
29700;SDS011;57917;51.380;-0.176;2023-02-18T03:34:30;5.57;;;0.40;;
29700;SDS011;57917;51.380;-0.176;2023-02-18T03:40:21;5.47;;;0.77;;
29700;SDS011;57917;51.380;-0.176;2023-02-18T03:46:08;5.32;;;0.68;;
29700;SDS011;57917;51.380;-0.176;2023-02-18T03:51:55;2.25;;;0.30;;
29700;SDS011;57917;51.380;-0.176;2023-02-18T03:57:42;1.65;;;0.63;;
29700;SDS011;57917;51.380;-0.176;2023-02-18T04:03:29;1.83;;;0.45;;
29700;SDS011;57917;51.380;-0.176;2023-02-18T04:09:16;7.35;;;0.60;;
29700;SDS011;57917;51.380;-0.176;2023-02-18T04:15:03;2.28;;;0.40;;
29700;SDS011;57917;51.380;-0.176;2023-02-18T04:20:50;1.48;;;0.60;;
29700;SDS011;57917;51.380;-0.176;2023-02-18T04:26:37;8.80;;;0.70;;
29700;SDS011;57917;51.380;-0.176;2023-02-18T04:32:24;5.68;;;0.40;;
29700;SDS011;57917;51.380;-0.176;2023-02-18T04:38:15;3.70;;;0.52;;
29700;SDS011;57917;51.380;-0.176;2023-02-18T04:44:04;3.13;;;0.38;;
29700;SDS011;57917;51.380;-0.176;2023-02-18T04:50:02;3.33;;;0.40;;
29700;SDS011;57917;51.380;-0.176;2023-02-18T04:55:50;11.52;;;0.77;;
29700;SDS011;57917;51.380;-0.176;2023-02-18T05:01:38;5.18;;;0.52;;
29700;SDS011;57917;51.380;-0.176;2023-02-18T05:07:25;1.77;;;0.30;;
29700;SDS011;57917;51.380;-0.176;2023-02-18T05:13:14;0.60;;;0.25;;
29700;SDS011;57917;51.380;-0.176;2023-02-18T05:19:01;5.75;;;0.40;;
29700;SDS011;57917;51.380;-0.176;2023-02-18T05:24:47;7.25;;;0.82;;
29700;SDS011;57917;51.380;-0.176;2023-02-18T05:30:34;0.80;;;0.47;;
29700;SDS011;57917;51.380;-0.176;2023-02-18T05:36:21;1.00;;;0.35;;
29700;SDS011;57917;51.380;-0.176;2023-02-18T05:42:08;2.92;;;0.63;;
29700;SDS011;57917;51.380;-0.176;2023-02-18T05:47:55;1.15;;;0.50;;
29700;SDS011;57917;51.380;-0.176;2023-02-18T05:53:42;1.52;;;0.47;;
29700;SDS011;57917;51.380;-0.176;2023-02-18T05:59:29;1.45;;;0.30;;
29700;SDS011;57917;51.380;-0.176;2023-02-18T06:05:17;0.50;;;0.47;;
29700;SDS011;57917;51.380;-0.176;2023-02-18T06:11:04;1.38;;;0.20;;
29700;SDS011;57917;51.380;-0.176;2023-02-18T06:16:52;1.77;;;0.32;;
29700;SDS011;57917;51.380;-0.176;2023-02-18T06:22:42;4.50;;;0.57;;
29700;SDS011;57917;51.380;-0.176;2023-02-18T06:28:28;0.57;;;0.30;;
29700;SDS011;57917;51.380;-0.176;2023-02-18T06:34:16;1.52;;;0.20;;
29700;SDS011;57917;51.380;-0.176;2023-02-18T06:40:03;2.22;;;1.00;;
29700;SDS011;57917;51.380;-0.176;2023-02-18T06:45:51;1.38;;;0.43;;
29700;SDS011;57917;51.380;-0.176;2023-02-18T06:51:37;1.90;;;0.40;;
29700;SDS011;57917;51.380;-0.176;2023-02-18T06:57:27;1.52;;;0.30;;
29700;SDS011;57917;51.380;-0.176;2023-02-18T07:03:14;1.98;;;0.52;;
29700;SDS011;57917;51.380;-0.176;2023-02-18T07:09:00;1.48;;;0.50;;
29700;SDS011;57917;51.380;-0.176;2023-02-18T07:14:50;1.67;;;0.30;;
29700;SDS011;57917;51.380;-0.176;2023-02-18T07:20:37;0.70;;;0.30;;
29700;SDS011;57917;51.380;-0.176;2023-02-18T07:26:24;0.32;;;0.30;;
29700;SDS011;57917;51.380;-0.176;2023-02-18T07:32:11;1.05;;;0.50;;
29700;SDS011;57917;51.380;-0.176;2023-02-18T07:37:59;1.05;;;0.30;;
29700;SDS011;57917;51.380;-0.176;2023-02-18T07:43:48;1.52;;;0.30;;
29700;SDS011;57917;51.380;-0.176;2023-02-18T07:49:35;2.95;;;0.52;;
29700;SDS011;57917;51.380;-0.176;2023-02-18T07:55:22;2.80;;;0.43;;
29700;SDS011;57917;51.380;-0.176;2023-02-18T08:01:10;10.77;;;0.75;;
29700;SDS011;57917;51.380;-0.176;2023-02-18T08:07:05;1.50;;;0.47;;
29700;SDS011;57917;51.380;-0.176;2023-02-18T08:12:52;1.00;;;0.22;;
29700;SDS011;57917;51.380;-0.176;2023-02-18T08:18:51;5.47;;;0.65;;
29700;SDS011;57917;51.380;-0.176;2023-02-18T08:24:41;0.63;;;0.50;;
29700;SDS011;57917;51.380;-0.176;2023-02-18T08:30:29;4.20;;;0.70;;
29700;SDS011;57917;51.380;-0.176;2023-02-18T08:36:17;2.22;;;0.22;;
29700;SDS011;57917;51.380;-0.176;2023-02-18T08:42:07;0.17;;;0.17;;
29700;SDS011;57917;51.380;-0.176;2023-02-18T08:47:53;1.85;;;0.57;;
29700;SDS011;57917;51.380;-0.176;2023-02-18T08:54:01;4.32;;;0.45;;
29700;SDS011;57917;51.380;-0.176;2023-02-18T08:59:49;2.03;;;0.52;;
29700;SDS011;57917;51.380;-0.176;2023-02-18T09:05:38;2.72;;;0.55;;
29700;SDS011;57917;51.380;-0.176;2023-02-18T09:11:26;3.67;;;0.50;;
29700;SDS011;57917;51.380;-0.176;2023-02-18T09:17:13;1.23;;;0.40;;
29700;SDS011;57917;51.380;-0.176;2023-02-18T09:29:56;1.15;;;0.40;;
29700;SDS011;57917;51.380;-0.176;2023-02-18T09:35:44;2.30;;;0.40;;
29700;SDS011;57917;51.380;-0.176;2023-02-18T09:41:41;5.47;;;0.40;;
29700;SDS011;57917;51.380;-0.176;2023-02-18T09:47:36;0.93;;;0.40;;
29700;SDS011;57917;51.380;-0.176;2023-02-18T09:53:25;3.03;;;0.35;;
29700;SDS011;57917;51.380;-0.176;2023-02-18T09:59:13;0.85;;;0.30;;
29700;SDS011;57917;51.380;-0.176;2023-02-18T10:05:03;3.72;;;0.32;;
29700;SDS011;57917;51.380;-0.176;2023-02-18T10:10:50;2.75;;;0.38;;
29700;SDS011;57917;51.380;-0.176;2023-02-18T10:16:37;0.25;;;0.17;;
29700;SDS011;57917;51.380;-0.176;2023-02-18T10:22:24;1.88;;;0.70;;
29700;SDS011;57917;51.380;-0.176;2023-02-18T10:28:12;0.88;;;0.32;;
29700;SDS011;57917;51.380;-0.176;2023-02-18T11:05:31;0.47;;;0.22;;
29700;SDS011;57917;51.380;-0.176;2023-02-18T11:11:33;6.43;;;0.30;;
29700;SDS011;57917;51.380;-0.176;2023-02-18T11:17:26;3.88;;;0.32;;
29700;SDS011;57917;51.380;-0.176;2023-02-18T11:23:19;3.50;;;1.50;;
29700;SDS011;57917;51.380;-0.176;2023-02-18T11:29:16;2.72;;;0.52;;
29700;SDS011;57917;51.380;-0.176;2023-02-18T11:35:15;1.08;;;0.47;;
29700;SDS011;57917;51.380;-0.176;2023-02-18T11:41:08;0.50;;;0.30;;
29700;SDS011;57917;51.380;-0.176;2023-02-18T11:47:05;1.92;;;1.05;;
29700;SDS011;57917;51.380;-0.176;2023-02-18T11:59:13;1.98;;;0.40;;
29700;SDS011;57917;51.380;-0.176;2023-02-18T12:11:14;4.47;;;0.47;;
29700;SDS011;57917;51.380;-0.176;2023-02-18T12:17:13;7.88;;;0.52;;
29700;SDS011;57917;51.380;-0.176;2023-02-18T12:23:22;1.65;;;0.50;;
29700;SDS011;57917;51.380;-0.176;2023-02-18T12:41:28;2.70;;;0.45;;
29700;SDS011;57917;51.380;-0.176;2023-02-18T12:47:29;0.95;;;0.25;;
29700;SDS011;57917;51.380;-0.176;2023-02-18T13:13:49;0.47;;;0.43;;
29700;SDS011;57917;51.380;-0.176;2023-02-18T13:19:49;1.60;;;0.40;;
29700;SDS011;57917;51.380;-0.176;2023-02-18T13:25:42;2.53;;;0.70;;
29700;SDS011;57917;51.380;-0.176;2023-02-18T13:43:57;0.90;;;0.40;;
29700;SDS011;57917;51.380;-0.176;2023-02-18T13:49:48;0.63;;;0.50;;
29700;SDS011;57917;51.380;-0.176;2023-02-18T14:02:34;1.17;;;0.60;;
29700;SDS011;57917;51.380;-0.176;2023-02-18T14:08:30;0.55;;;0.40;;
29700;SDS011;57917;51.380;-0.176;2023-02-18T14:32:01;0.57;;;0.47;;
29700;SDS011;57917;51.380;-0.176;2023-02-18T14:38:01;1.17;;;0.50;;
29700;SDS011;57917;51.380;-0.176;2023-02-18T14:50:16;0.28;;;0.28;;
29700;SDS011;57917;51.380;-0.176;2023-02-18T14:56:08;0.52;;;0.32;;
29700;SDS011;57917;51.380;-0.176;2023-02-18T15:01:58;1.42;;;0.70;;
29700;SDS011;57917;51.380;-0.176;2023-02-18T15:13:54;1.65;;;0.75;;
29700;SDS011;57917;51.380;-0.176;2023-02-18T15:19:42;1.90;;;0.52;;
29700;SDS011;57917;51.380;-0.176;2023-02-18T15:25:35;0.30;;;0.30;;
29700;SDS011;57917;51.380;-0.176;2023-02-18T15:31:35;1.27;;;0.35;;
29700;SDS011;57917;51.380;-0.176;2023-02-18T15:37:24;0.40;;;0.40;;
29700;SDS011;57917;51.380;-0.176;2023-02-18T15:43:16;0.80;;;0.40;;
29700;SDS011;57917;51.380;-0.176;2023-02-18T15:49:06;0.45;;;0.30;;
29700;SDS011;57917;51.380;-0.176;2023-02-18T15:54:54;1.17;;;0.50;;
29700;SDS011;57917;51.380;-0.176;2023-02-18T16:00:47;1.53;;;0.60;;
29700;SDS011;57917;51.380;-0.176;2023-02-18T16:06:43;0.47;;;0.38;;
29700;SDS011;57917;51.380;-0.176;2023-02-18T16:13:44;5.75;;;0.32;;
29700;SDS011;57917;51.380;-0.176;2023-02-18T16:19:54;1.30;;;0.30;;
29700;SDS011;57917;51.380;-0.176;2023-02-18T16:32:28;1.23;;;0.47;;
29700;SDS011;57917;51.380;-0.176;2023-02-18T16:52:51;1.88;;;0.85;;
29700;SDS011;57917;51.380;-0.176;2023-02-18T16:58:40;1.10;;;0.60;;
29700;SDS011;57917;51.380;-0.176;2023-02-18T17:04:43;3.10;;;0.50;;
29700;SDS011;57917;51.380;-0.176;2023-02-18T17:10:30;1.27;;;0.32;;
29700;SDS011;57917;51.380;-0.176;2023-02-18T17:16:18;2.60;;;0.73;;
29700;SDS011;57917;51.380;-0.176;2023-02-18T17:22:06;4.10;;;0.50;;
29700;SDS011;57917;51.380;-0.176;2023-02-18T17:27:55;0.75;;;0.40;;
29700;SDS011;57917;51.380;-0.176;2023-02-18T17:33:43;0.50;;;0.40;;
29700;SDS011;57917;51.380;-0.176;2023-02-18T17:39:32;2.45;;;0.63;;
29700;SDS011;57917;51.380;-0.176;2023-02-18T17:51:25;3.17;;;0.80;;
29700;SDS011;57917;51.380;-0.176;2023-02-18T17:57:14;2.20;;;0.55;;
29700;SDS011;57917;51.380;-0.176;2023-02-18T18:03:04;1.95;;;0.38;;
29700;SDS011;57917;51.380;-0.176;2023-02-18T18:09:02;8.13;;;0.73;;
29700;SDS011;57917;51.380;-0.176;2023-02-18T18:14:49;18.52;;;1.05;;
29700;SDS011;57917;51.380;-0.176;2023-02-18T18:20:42;3.58;;;0.95;;
29700;SDS011;57917;51.380;-0.176;2023-02-18T18:26:38;2.50;;;1.02;;
29700;SDS011;57917;51.380;-0.176;2023-02-18T18:32:25;2.63;;;0.73;;
29700;SDS011;57917;51.380;-0.176;2023-02-18T18:38:21;8.38;;;1.80;;
29700;SDS011;57917;51.380;-0.176;2023-02-18T18:44:11;6.78;;;1.13;;
29700;SDS011;57917;51.380;-0.176;2023-02-18T18:50:05;3.65;;;1.38;;
29700;SDS011;57917;51.380;-0.176;2023-02-18T18:55:54;8.00;;;1.15;;
29700;SDS011;57917;51.380;-0.176;2023-02-18T19:01:44;3.97;;;1.08;;
29700;SDS011;57917;51.380;-0.176;2023-02-18T19:07:31;6.03;;;1.00;;
29700;SDS011;57917;51.380;-0.176;2023-02-18T19:13:19;5.72;;;1.65;;
29700;SDS011;57917;51.380;-0.176;2023-02-18T19:19:07;3.53;;;1.38;;
29700;SDS011;57917;51.380;-0.176;2023-02-18T19:24:56;5.15;;;1.15;;
29700;SDS011;57917;51.380;-0.176;2023-02-18T19:30:42;3.45;;;1.05;;
29700;SDS011;57917;51.380;-0.176;2023-02-18T19:36:31;9.50;;;1.25;;
29700;SDS011;57917;51.380;-0.176;2023-02-18T19:42:19;4.68;;;1.23;;
29700;SDS011;57917;51.380;-0.176;2023-02-18T19:48:06;5.47;;;1.30;;
29700;SDS011;57917;51.380;-0.176;2023-02-18T19:53:53;7.10;;;1.73;;
29700;SDS011;57917;51.380;-0.176;2023-02-18T19:59:44;8.63;;;1.47;;
29700;SDS011;57917;51.380;-0.176;2023-02-18T20:05:35;5.10;;;1.08;;
29700;SDS011;57917;51.380;-0.176;2023-02-18T20:11:24;6.50;;;1.48;;
29700;SDS011;57917;51.380;-0.176;2023-02-18T20:17:11;9.23;;;1.50;;
29700;SDS011;57917;51.380;-0.176;2023-02-18T20:23:01;16.30;;;1.50;;
29700;SDS011;57917;51.380;-0.176;2023-02-18T20:28:47;11.15;;;1.58;;
29700;SDS011;57917;51.380;-0.176;2023-02-18T20:34:34;10.15;;;2.17;;
29700;SDS011;57917;51.380;-0.176;2023-02-18T20:40:21;5.55;;;0.93;;
29700;SDS011;57917;51.380;-0.176;2023-02-18T20:46:16;3.83;;;1.10;;
29700;SDS011;57917;51.380;-0.176;2023-02-18T20:52:09;8.32;;;1.65;;
29700;SDS011;57917;51.380;-0.176;2023-02-18T20:57:59;9.20;;;1.57;;
29700;SDS011;57917;51.380;-0.176;2023-02-18T21:03:52;13.73;;;2.13;;
29700;SDS011;57917;51.380;-0.176;2023-02-18T21:16:31;14.35;;;1.77;;
29700;SDS011;57917;51.380;-0.176;2023-02-18T22:14:02;14.88;;;2.50;;
29700;SDS011;57917;51.380;-0.176;2023-02-18T22:20:30;11.60;;;2.03;;
29700;SDS011;57917;51.380;-0.176;2023-02-18T22:26:39;16.52;;;2.55;;
29700;SDS011;57917;51.380;-0.176;2023-02-18T22:41:18;9.15;;;2.35;;
29700;SDS011;57917;51.380;-0.176;2023-02-18T22:55:18;13.15;;;2.20;;
29700;SDS011;57917;51.380;-0.176;2023-02-18T23:02:17;11.98;;;1.63;;
29700;SDS011;57917;51.380;-0.176;2023-02-18T23:08:10;20.17;;;2.65;;
29700;SDS011;57917;51.380;-0.176;2023-02-18T23:14:04;8.48;;;1.65;;
29700;SDS011;57917;51.380;-0.176;2023-02-18T23:20:09;6.80;;;1.83;;
29700;SDS011;57917;51.380;-0.176;2023-02-18T23:26:08;12.07;;;1.55;;
29700;SDS011;57917;51.380;-0.176;2023-02-18T23:38:22;24.15;;;2.38;;
29700;SDS011;57917;51.380;-0.176;2023-02-18T23:44:40;8.35;;;1.27;;
29700;SDS011;57917;51.380;-0.176;2023-02-18T23:51:36;6.75;;;1.83;;
29700;SDS011;57917;51.380;-0.176;2023-02-18T23:57:36;17.70;;;2.60;;
